createdAt,value
2023-10-11T14:02:46.341Z,41.10
2023-10-11T14:05:31.613Z,41.70
2023-10-11T14:09:18.226Z,43.90
2023-10-11T14:11:48.252Z,40.00
2023-10-11T14:14:21.863Z,40.00
2023-10-11T14:16:50.761Z,39.60
2023-10-11T14:19:20.338Z,39.60
2023-10-11T14:21:49.393Z,39.20
2023-10-11T14:24:20.612Z,39.20
2023-10-11T14:26:49.512Z,39.00
2023-10-11T14:29:17.886Z,39.20
2023-10-11T14:31:46.296Z,39.10
2023-10-11T14:34:14.522Z,39.20
2023-10-11T14:36:43.188Z,39.50
2023-10-11T14:39:19.667Z,39.00
2023-10-11T14:41:52.116Z,39.00
2023-10-11T14:44:20.887Z,38.60
2023-10-11T14:46:50.479Z,39.00
2023-10-11T14:49:22.690Z,39.10
2023-10-11T14:51:52.743Z,39.30
2023-10-11T14:54:21.953Z,39.40
2023-10-11T14:56:51.761Z,39.30
2023-10-11T14:59:19.982Z,39.40
2023-10-11T15:01:48.236Z,39.50
2023-10-11T15:04:17.122Z,39.20
2023-10-11T15:06:47.612Z,39.30
2023-10-11T15:09:29.477Z,39.40
2023-10-11T15:11:59.207Z,39.70
2023-10-11T15:14:27.782Z,39.40
2023-10-11T15:16:59.631Z,39.40
2023-10-11T15:19:28.127Z,39.30
2023-10-11T15:21:56.300Z,39.60
2023-10-11T15:24:25.036Z,39.90
2023-10-11T15:26:53.413Z,39.70
2023-10-11T15:29:24.387Z,39.80
2023-10-11T15:31:52.645Z,39.60
2023-10-11T15:34:20.884Z,40.30
2023-10-11T15:36:50.852Z,39.90
2023-10-11T15:39:19.317Z,39.90
2023-10-11T15:41:47.640Z,39.90
2023-10-11T15:44:16.948Z,40.10
2023-10-11T15:46:46.961Z,40.80
2023-10-11T15:49:15.147Z,40.10
2023-10-11T15:51:43.301Z,40.40
2023-10-11T15:54:12.495Z,40.50
2023-10-11T15:56:40.790Z,41.00
2023-10-11T15:59:10.373Z,41.00
2023-10-11T16:01:39.967Z,41.20
2023-10-11T16:04:12.557Z,41.40
2023-10-11T16:06:42.901Z,41.90
2023-10-11T16:09:15.407Z,42.30
2023-10-11T16:11:43.766Z,42.50
2023-10-11T16:14:12.803Z,42.90
2023-10-11T16:16:41.757Z,43.20
2023-10-11T16:19:12.725Z,43.60
2023-10-11T16:21:41.701Z,44.20
2023-10-11T16:24:10.908Z,44.50
2023-10-11T16:26:42.917Z,44.80
2023-10-11T16:29:11.097Z,45.20
2023-10-11T16:31:39.907Z,46.10
2023-10-11T16:34:08.084Z,45.60
2023-10-11T16:36:37.726Z,45.80
2023-10-11T16:39:09.311Z,46.10
2023-10-11T16:41:43.274Z,46.20
2023-10-11T16:44:14.488Z,46.40
2023-10-11T16:46:43.052Z,46.70
2023-10-11T16:49:12.300Z,46.90
2023-10-11T16:51:43.187Z,47.10
2023-10-11T16:54:11.421Z,47.40
2023-10-11T16:56:40.958Z,47.50
2023-10-11T16:59:09.158Z,47.60
2023-10-11T17:01:37.766Z,47.90
2023-10-11T17:04:09.047Z,48.10
2023-10-11T17:06:37.588Z,47.90
2023-10-11T17:09:08.268Z,48.30
2023-10-11T17:11:36.547Z,48.60
2023-10-11T17:14:05.614Z,48.80
2023-10-11T17:16:35.270Z,49.00
2023-10-11T17:19:04.147Z,49.20
2023-10-11T17:21:34.331Z,49.30
2023-10-11T17:24:03.432Z,49.30
2023-10-11T17:26:33.711Z,49.30
2023-10-11T17:29:02.163Z,49.60
2023-10-11T17:31:30.479Z,49.70
2023-10-11T17:33:58.740Z,49.80
2023-10-11T17:36:27.832Z,49.90
2023-10-11T17:38:56.380Z,50.10
2023-10-11T17:41:26.251Z,50.20
2023-10-11T17:43:55.824Z,50.30
2023-10-11T17:46:25.116Z,50.40
2023-10-11T17:48:53.411Z,50.70
2023-10-11T17:51:21.722Z,50.60
2023-10-11T17:53:52.535Z,50.70
2023-10-11T17:56:20.691Z,51.50
2023-10-11T17:58:49.733Z,51.30
2023-10-11T18:01:20.177Z,51.60
2023-10-11T18:03:49.342Z,51.80
2023-10-11T18:06:19.173Z,52.20
2023-10-11T18:08:47.508Z,52.50
2023-10-11T18:11:15.740Z,52.80
2023-10-11T18:13:43.973Z,53.20
2023-10-11T18:16:12.251Z,53.60
2023-10-11T18:18:41.927Z,53.90
2023-10-11T18:21:10.652Z,54.30
2023-10-11T18:23:38.921Z,54.30
2023-10-11T18:26:09.176Z,54.60
2023-10-11T18:28:37.389Z,54.60
2023-10-11T18:31:14.703Z,55.10
2023-10-11T18:33:44.283Z,55.70
2023-10-11T18:36:12.560Z,55.50
2023-10-11T18:38:40.795Z,55.80
2023-10-11T18:41:10.976Z,56.00
2023-10-11T18:43:39.577Z,56.00
2023-10-11T18:46:14.509Z,56.10
2023-10-11T18:48:45.883Z,56.40
2023-10-11T18:51:17.432Z,56.60
2023-10-11T18:53:46.279Z,56.80
2023-10-11T18:56:15.245Z,57.00
2023-10-11T18:58:45.045Z,57.30
2023-10-11T19:01:17.943Z,57.50
2023-10-11T19:03:50.686Z,57.70
2023-10-11T19:06:19.617Z,57.10
2023-10-11T19:08:47.897Z,57.60
2023-10-11T19:11:17.488Z,58.30
2023-10-11T19:13:46.304Z,57.90
2023-10-11T19:16:25.178Z,58.10
2023-10-11T19:18:57.905Z,58.50
2023-10-11T19:21:26.916Z,58.60
2023-10-11T19:23:56.994Z,58.60
2023-10-11T19:26:25.601Z,58.70
2023-10-11T19:28:54.168Z,58.90
2023-10-11T19:31:23.911Z,59.10
2023-10-11T19:33:53.153Z,59.20
2023-10-11T19:36:22.871Z,59.40
2023-10-11T19:38:51.190Z,59.70
2023-10-11T19:41:19.452Z,59.80
2023-10-11T19:43:47.661Z,59.90
2023-10-11T19:46:16.349Z,60.20
2023-10-11T19:48:46.395Z,60.40
2023-10-11T19:51:14.657Z,60.80
2023-10-11T19:53:44.262Z,60.90
2023-10-11T19:56:12.854Z,61.30
2023-10-11T19:58:41.089Z,61.30
2023-10-11T20:01:18.921Z,61.50
2023-10-11T20:03:55.955Z,62.20
2023-10-11T20:06:24.890Z,61.90
2023-10-11T20:08:55.418Z,62.20
2023-10-11T20:11:24.484Z,62.70
2023-10-11T20:13:52.675Z,62.70
2023-10-11T20:16:20.889Z,63.00
2023-10-11T20:18:51.111Z,63.20
2023-10-11T20:21:20.720Z,63.50
2023-10-11T20:23:50.867Z,63.80
2023-10-11T20:26:23.463Z,64.00
2023-10-11T20:28:53.249Z,64.40
2023-10-11T20:31:23.712Z,64.30
2023-10-11T20:33:52.097Z,64.50
2023-10-11T20:36:22.632Z,64.70
2023-10-11T20:38:50.867Z,64.90
2023-10-11T20:41:20.396Z,65.20
2023-10-11T20:43:49.012Z,65.70
2023-10-11T20:46:17.979Z,65.80
2023-10-11T20:48:46.528Z,66.20
2023-10-11T20:51:16.937Z,66.70
2023-10-11T20:53:46.182Z,66.90
2023-10-11T20:56:14.487Z,67.20
2023-10-11T20:58:56.290Z,67.60
2023-10-11T21:01:26.791Z,68.30
2023-10-11T21:03:56.356Z,68.20
2023-10-11T21:06:24.711Z,68.40
2023-10-11T21:08:52.909Z,68.60
2023-10-11T21:11:22.114Z,68.80
2023-10-11T21:13:51.758Z,69.10
2023-10-11T21:16:19.914Z,69.80
2023-10-11T21:18:50.252Z,69.90
2023-10-11T21:21:19.370Z,70.20
2023-10-11T21:23:47.867Z,70.60
2023-10-11T21:26:17.067Z,70.70
2023-10-11T21:28:53.537Z,70.80
2023-10-11T21:31:25.010Z,70.90
2023-10-11T21:33:53.386Z,71.20
2023-10-11T21:36:22.174Z,71.40
2023-10-11T21:38:50.423Z,71.70
2023-10-11T21:41:22.216Z,71.90
2023-10-11T21:43:54.512Z,72.20
2023-10-11T21:46:24.226Z,72.20
2023-10-11T21:48:53.276Z,72.00
2023-10-11T21:51:21.483Z,72.20
2023-10-11T21:53:50.699Z,72.40
2023-10-11T21:56:18.883Z,72.40
2023-10-11T21:58:48.098Z,72.40
2023-10-11T22:01:25.390Z,72.50
2023-10-11T22:03:58.318Z,72.80
2023-10-11T22:06:26.936Z,73.50
2023-10-11T22:08:56.712Z,73.20
2023-10-11T22:11:30.724Z,73.50
2023-10-11T22:13:59.279Z,74.00
2023-10-11T22:16:27.702Z,74.00
2023-10-11T22:19:00.273Z,74.30
2023-10-11T22:21:28.849Z,74.60
2023-10-11T22:23:57.200Z,74.40
2023-10-11T22:26:27.576Z,74.60
2023-10-11T22:28:57.528Z,74.50
2023-10-11T22:31:25.883Z,74.60
2023-10-11T22:33:55.875Z,74.50
2023-10-11T22:36:28.173Z,74.60
2023-10-11T22:38:56.638Z,74.90
2023-10-11T22:41:26.124Z,74.50
2023-10-11T22:43:55.473Z,74.90
2023-10-11T22:46:25.982Z,75.10
2023-10-11T22:48:55.351Z,75.30
2023-10-11T22:51:28.735Z,75.40
2023-10-11T22:54:01.962Z,75.60
2023-10-11T22:56:32.465Z,75.00
2023-10-11T22:59:04.625Z,75.40
2023-10-11T23:01:40.427Z,75.60
2023-10-11T23:07:43.756Z,76.40
2023-10-11T23:10:24.094Z,76.60
2023-10-11T23:13:14.233Z,76.50
2023-10-11T23:15:55.409Z,77.40
2023-10-11T23:18:28.607Z,76.90
2023-10-11T23:21:01.789Z,76.60
2023-10-11T23:23:40.576Z,76.70
2023-10-11T23:26:10.320Z,77.00
2023-10-11T23:28:39.798Z,76.80
2023-10-11T23:31:10.909Z,77.00
2023-10-11T23:33:49.911Z,77.10
2023-10-11T23:36:24.425Z,77.20
2023-10-11T23:39:02.707Z,77.20
2023-10-11T23:41:37.992Z,77.30
2023-10-11T23:44:21.141Z,77.00
2023-10-11T23:46:57.886Z,77.10
2023-10-11T23:49:41.148Z,77.10
2023-10-11T23:52:13.810Z,77.30
2023-10-11T23:54:50.032Z,77.30
2023-10-11T23:57:23.725Z,77.40
2023-10-11T23:59:53.721Z,77.30
